sensor_id;sensor_type;location;lat;lon;timestamp;P1;durP1;ratioP1;P2;durP2;ratioP2
76477;SDS011;65309;49.790;18.972;2023-03-01T00:02:44;9.20;;;4.07;;
76477;SDS011;65309;49.790;18.972;2023-03-01T00:07:46;7.50;;;4.32;;
76477;SDS011;65309;49.790;18.972;2023-03-01T00:12:48;9.80;;;4.78;;
76477;SDS011;65309;49.790;18.972;2023-03-01T00:17:52;3.20;;;2.92;;
76477;SDS011;65309;49.790;18.972;2023-03-01T00:22:54;5.25;;;3.83;;
76477;SDS011;65309;49.790;18.972;2023-03-01T00:27:56;3.85;;;3.40;;
76477;SDS011;65309;49.790;18.972;2023-03-01T00:32:59;3.10;;;2.80;;
76477;SDS011;65309;49.790;18.972;2023-03-01T00:38:01;3.78;;;2.20;;
76477;SDS011;65309;49.790;18.972;2023-03-01T00:43:05;4.82;;;3.10;;
76477;SDS011;65309;49.790;18.972;2023-03-01T00:48:08;2.03;;;1.83;;
76477;SDS011;65309;49.790;18.972;2023-03-01T00:53:11;3.03;;;2.00;;
76477;SDS011;65309;49.790;18.972;2023-03-01T00:58:13;3.95;;;2.53;;
76477;SDS011;65309;49.790;18.972;2023-03-01T01:03:16;4.00;;;2.65;;
76477;SDS011;65309;49.790;18.972;2023-03-01T01:08:18;5.22;;;2.63;;
76477;SDS011;65309;49.790;18.972;2023-03-01T01:13:20;5.95;;;2.63;;
76477;SDS011;65309;49.790;18.972;2023-03-01T01:18:24;6.20;;;2.20;;
76477;SDS011;65309;49.790;18.972;2023-03-01T01:23:26;3.33;;;2.90;;
76477;SDS011;65309;49.790;18.972;2023-03-01T01:28:28;3.40;;;2.17;;
76477;SDS011;65309;49.790;18.972;2023-03-01T01:33:31;2.22;;;1.77;;
76477;SDS011;65309;49.790;18.972;2023-03-01T01:38:34;4.00;;;3.17;;
76477;SDS011;65309;49.790;18.972;2023-03-01T01:43:37;2.60;;;2.40;;
76477;SDS011;65309;49.790;18.972;2023-03-01T01:48:46;3.03;;;2.78;;
76477;SDS011;65309;49.790;18.972;2023-03-01T01:53:52;1.63;;;1.40;;
76477;SDS011;65309;49.790;18.972;2023-03-01T01:59:00;3.00;;;2.75;;
76477;SDS011;65309;49.790;18.972;2023-03-01T02:04:05;2.05;;;1.70;;
76477;SDS011;65309;49.790;18.972;2023-03-01T02:09:11;8.13;;;4.35;;
76477;SDS011;65309;49.790;18.972;2023-03-01T02:14:15;2.50;;;2.30;;
76477;SDS011;65309;49.790;18.972;2023-03-01T02:19:22;8.82;;;2.90;;
76477;SDS011;65309;49.790;18.972;2023-03-01T02:24:35;5.30;;;3.42;;
76477;SDS011;65309;49.790;18.972;2023-03-01T02:29:47;3.90;;;3.47;;
76477;SDS011;65309;49.790;18.972;2023-03-01T02:34:49;5.13;;;2.80;;
76477;SDS011;65309;49.790;18.972;2023-03-01T02:39:53;2.35;;;2.13;;
76477;SDS011;65309;49.790;18.972;2023-03-01T02:45:01;3.70;;;2.88;;
76477;SDS011;65309;49.790;18.972;2023-03-01T02:50:08;7.80;;;2.80;;
76477;SDS011;65309;49.790;18.972;2023-03-01T02:55:15;5.53;;;5.03;;
76477;SDS011;65309;49.790;18.972;2023-03-01T03:00:21;9.73;;;5.07;;
76477;SDS011;65309;49.790;18.972;2023-03-01T03:05:27;4.63;;;3.42;;
76477;SDS011;65309;49.790;18.972;2023-03-01T03:10:32;4.13;;;3.08;;
76477;SDS011;65309;49.790;18.972;2023-03-01T03:15:37;3.22;;;2.67;;
76477;SDS011;65309;49.790;18.972;2023-03-01T03:20:41;7.28;;;4.05;;
76477;SDS011;65309;49.790;18.972;2023-03-01T03:25:44;3.53;;;2.70;;
76477;SDS011;65309;49.790;18.972;2023-03-01T03:30:47;4.50;;;2.75;;
76477;SDS011;65309;49.790;18.972;2023-03-01T03:35:50;8.13;;;2.33;;
76477;SDS011;65309;49.790;18.972;2023-03-01T03:40:55;3.05;;;2.45;;
76477;SDS011;65309;49.790;18.972;2023-03-01T03:46:06;3.13;;;2.53;;
76477;SDS011;65309;49.790;18.972;2023-03-01T03:51:09;4.82;;;3.58;;
76477;SDS011;65309;49.790;18.972;2023-03-01T03:56:12;4.40;;;2.38;;
76477;SDS011;65309;49.790;18.972;2023-03-01T04:01:16;6.28;;;4.00;;
76477;SDS011;65309;49.790;18.972;2023-03-01T04:06:18;2.63;;;1.92;;
76477;SDS011;65309;49.790;18.972;2023-03-01T04:11:20;4.07;;;3.60;;
76477;SDS011;65309;49.790;18.972;2023-03-01T04:16:29;1.73;;;1.52;;
76477;SDS011;65309;49.790;18.972;2023-03-01T04:21:31;10.45;;;6.03;;
76477;SDS011;65309;49.790;18.972;2023-03-01T04:26:33;4.82;;;4.05;;
76477;SDS011;65309;49.790;18.972;2023-03-01T04:31:37;4.75;;;3.92;;
76477;SDS011;65309;49.790;18.972;2023-03-01T04:36:39;6.95;;;3.45;;
76477;SDS011;65309;49.790;18.972;2023-03-01T04:41:41;3.58;;;3.28;;
76477;SDS011;65309;49.790;18.972;2023-03-01T04:46:46;5.30;;;4.28;;
76477;SDS011;65309;49.790;18.972;2023-03-01T04:51:50;7.30;;;3.50;;
76477;SDS011;65309;49.790;18.972;2023-03-01T04:56:52;4.53;;;3.08;;
76477;SDS011;65309;49.790;18.972;2023-03-01T05:01:55;2.95;;;2.42;;
76477;SDS011;65309;49.790;18.972;2023-03-01T05:06:58;1.88;;;1.75;;
76477;SDS011;65309;49.790;18.972;2023-03-01T05:12:00;4.03;;;2.33;;
76477;SDS011;65309;49.790;18.972;2023-03-01T05:17:03;3.47;;;1.52;;
76477;SDS011;65309;49.790;18.972;2023-03-01T05:22:05;3.83;;;2.90;;
76477;SDS011;65309;49.790;18.972;2023-03-01T05:27:07;3.10;;;1.15;;
76477;SDS011;65309;49.790;18.972;2023-03-01T05:32:11;5.55;;;4.00;;
76477;SDS011;65309;49.790;18.972;2023-03-01T05:37:17;1.90;;;1.15;;
76477;SDS011;65309;49.790;18.972;2023-03-01T05:42:20;1.83;;;1.67;;
76477;SDS011;65309;49.790;18.972;2023-03-01T05:47:23;3.75;;;2.95;;
76477;SDS011;65309;49.790;18.972;2023-03-01T05:52:26;8.43;;;3.25;;
76477;SDS011;65309;49.790;18.972;2023-03-01T05:57:28;4.35;;;2.78;;
76477;SDS011;65309;49.790;18.972;2023-03-01T06:02:31;2.55;;;2.20;;
76477;SDS011;65309;49.790;18.972;2023-03-01T06:07:33;7.57;;;4.18;;
76477;SDS011;65309;49.790;18.972;2023-03-01T06:12:37;6.22;;;4.22;;
76477;SDS011;65309;49.790;18.972;2023-03-01T06:17:42;10.32;;;5.45;;
76477;SDS011;65309;49.790;18.972;2023-03-01T06:22:46;13.45;;;6.68;;
76477;SDS011;65309;49.790;18.972;2023-03-01T06:27:49;11.52;;;5.50;;
76477;SDS011;65309;49.790;18.972;2023-03-01T06:32:53;7.20;;;6.05;;
76477;SDS011;65309;49.790;18.972;2023-03-01T06:38:02;4.18;;;3.65;;
76477;SDS011;65309;49.790;18.972;2023-03-01T06:43:05;3.03;;;2.70;;
76477;SDS011;65309;49.790;18.972;2023-03-01T06:48:10;4.55;;;3.20;;
76477;SDS011;65309;49.790;18.972;2023-03-01T06:53:12;5.03;;;4.10;;
76477;SDS011;65309;49.790;18.972;2023-03-01T06:58:14;13.10;;;10.48;;
76477;SDS011;65309;49.790;18.972;2023-03-01T07:03:17;11.85;;;6.70;;
76477;SDS011;65309;49.790;18.972;2023-03-01T07:08:19;9.20;;;5.88;;
76477;SDS011;65309;49.790;18.972;2023-03-01T07:13:21;13.32;;;9.18;;
76477;SDS011;65309;49.790;18.972;2023-03-01T07:18:25;11.40;;;7.15;;
76477;SDS011;65309;49.790;18.972;2023-03-01T07:23:28;28.42;;;15.65;;
76477;SDS011;65309;49.790;18.972;2023-03-01T07:28:30;27.50;;;12.95;;
76477;SDS011;65309;49.790;18.972;2023-03-01T07:33:34;29.38;;;15.73;;
76477;SDS011;65309;49.790;18.972;2023-03-01T07:38:36;18.75;;;12.95;;
76477;SDS011;65309;49.790;18.972;2023-03-01T07:43:39;31.67;;;16.52;;
76477;SDS011;65309;49.790;18.972;2023-03-01T07:48:43;33.85;;;17.55;;
76477;SDS011;65309;49.790;18.972;2023-03-01T07:53:45;24.52;;;15.73;;
76477;SDS011;65309;49.790;18.972;2023-03-01T07:58:49;20.13;;;12.38;;
76477;SDS011;65309;49.790;18.972;2023-03-01T08:03:53;19.27;;;9.70;;
76477;SDS011;65309;49.790;18.972;2023-03-01T08:08:55;22.48;;;14.20;;
76477;SDS011;65309;49.790;18.972;2023-03-01T08:13:57;27.58;;;12.57;;
76477;SDS011;65309;49.790;18.972;2023-03-01T08:19:04;7.60;;;5.72;;
76477;SDS011;65309;49.790;18.972;2023-03-01T08:24:07;9.48;;;6.47;;
76477;SDS011;65309;49.790;18.972;2023-03-01T08:29:09;13.27;;;8.40;;
76477;SDS011;65309;49.790;18.972;2023-03-01T08:34:13;8.63;;;6.68;;
76477;SDS011;65309;49.790;18.972;2023-03-01T08:39:17;11.95;;;6.90;;
76477;SDS011;65309;49.790;18.972;2023-03-01T08:44:20;9.82;;;6.72;;
76477;SDS011;65309;49.790;18.972;2023-03-01T08:49:24;15.13;;;7.13;;
76477;SDS011;65309;49.790;18.972;2023-03-01T08:54:26;8.40;;;4.60;;
76477;SDS011;65309;49.790;18.972;2023-03-01T08:59:28;20.98;;;11.70;;
76477;SDS011;65309;49.790;18.972;2023-03-01T09:04:32;15.18;;;9.50;;
76477;SDS011;65309;49.790;18.972;2023-03-01T09:09:35;4.10;;;3.67;;
76477;SDS011;65309;49.790;18.972;2023-03-01T09:14:37;10.52;;;5.07;;
76477;SDS011;65309;49.790;18.972;2023-03-01T09:19:41;12.70;;;5.57;;
76477;SDS011;65309;49.790;18.972;2023-03-01T09:24:43;7.53;;;6.20;;
76477;SDS011;65309;49.790;18.972;2023-03-01T09:29:45;22.45;;;13.27;;
76477;SDS011;65309;49.790;18.972;2023-03-01T09:34:49;15.82;;;7.88;;
76477;SDS011;65309;49.790;18.972;2023-03-01T09:40:06;8.23;;;5.85;;
76477;SDS011;65309;49.790;18.972;2023-03-01T09:45:19;18.02;;;8.50;;
76477;SDS011;65309;49.790;18.972;2023-03-01T09:50:31;24.70;;;11.05;;
76477;SDS011;65309;49.790;18.972;2023-03-01T09:55:37;17.65;;;10.20;;
76477;SDS011;65309;49.790;18.972;2023-03-01T10:00:44;15.35;;;8.15;;
76477;SDS011;65309;49.790;18.972;2023-03-01T10:05:54;10.80;;;8.20;;
76477;SDS011;65309;49.790;18.972;2023-03-01T10:11:01;20.70;;;11.13;;
76477;SDS011;65309;49.790;18.972;2023-03-01T10:16:05;16.75;;;8.98;;
76477;SDS011;65309;49.790;18.972;2023-03-01T10:21:15;13.15;;;7.88;;
76477;SDS011;65309;49.790;18.972;2023-03-01T10:26:24;14.63;;;8.63;;
76477;SDS011;65309;49.790;18.972;2023-03-01T10:31:39;15.75;;;9.48;;
76477;SDS011;65309;49.790;18.972;2023-03-01T10:36:47;13.55;;;7.47;;
76477;SDS011;65309;49.790;18.972;2023-03-01T10:41:55;24.50;;;12.90;;
76477;SDS011;65309;49.790;18.972;2023-03-01T10:46:59;16.30;;;6.95;;
76477;SDS011;65309;49.790;18.972;2023-03-01T10:52:16;11.35;;;7.72;;
76477;SDS011;65309;49.790;18.972;2023-03-01T10:57:26;12.35;;;7.47;;
76477;SDS011;65309;49.790;18.972;2023-03-01T11:02:31;14.20;;;9.18;;
76477;SDS011;65309;49.790;18.972;2023-03-01T11:07:42;18.13;;;10.93;;
76477;SDS011;65309;49.790;18.972;2023-03-01T11:12:50;16.33;;;8.48;;
76477;SDS011;65309;49.790;18.972;2023-03-01T11:17:52;13.57;;;9.10;;
76477;SDS011;65309;49.790;18.972;2023-03-01T11:23:12;13.90;;;6.80;;
76477;SDS011;65309;49.790;18.972;2023-03-01T11:28:15;17.58;;;7.70;;
76477;SDS011;65309;49.790;18.972;2023-03-01T11:33:20;8.55;;;4.93;;
76477;SDS011;65309;49.790;18.972;2023-03-01T11:38:36;6.63;;;5.80;;
76477;SDS011;65309;49.790;18.972;2023-03-01T11:43:42;12.77;;;5.53;;
76477;SDS011;65309;49.790;18.972;2023-03-01T11:48:57;12.38;;;7.38;;
76477;SDS011;65309;49.790;18.972;2023-03-01T11:54:12;17.55;;;9.50;;
76477;SDS011;65309;49.790;18.972;2023-03-01T11:59:39;7.00;;;3.90;;
76477;SDS011;65309;49.790;18.972;2023-03-01T12:04:54;11.18;;;6.55;;
76477;SDS011;65309;49.790;18.972;2023-03-01T12:10:23;10.02;;;6.43;;
76477;SDS011;65309;49.790;18.972;2023-03-01T12:15:38;9.77;;;6.32;;
76477;SDS011;65309;49.790;18.972;2023-03-01T12:20:49;9.73;;;5.38;;
76477;SDS011;65309;49.790;18.972;2023-03-01T12:26:02;7.82;;;5.70;;
76477;SDS011;65309;49.790;18.972;2023-03-01T12:36:49;9.75;;;6.05;;
76477;SDS011;65309;49.790;18.972;2023-03-01T12:42:07;11.35;;;7.88;;
76477;SDS011;65309;49.790;18.972;2023-03-01T12:47:26;18.95;;;10.55;;
76477;SDS011;65309;49.790;18.972;2023-03-01T12:52:40;14.38;;;6.95;;
76477;SDS011;65309;49.790;18.972;2023-03-01T12:57:51;9.52;;;6.00;;
76477;SDS011;65309;49.790;18.972;2023-03-01T13:03:02;13.70;;;8.40;;
76477;SDS011;65309;49.790;18.972;2023-03-01T13:08:15;21.90;;;11.15;;
76477;SDS011;65309;49.790;18.972;2023-03-01T13:13:23;16.70;;;10.20;;
76477;SDS011;65309;49.790;18.972;2023-03-01T13:18:30;21.40;;;10.70;;
76477;SDS011;65309;49.790;18.972;2023-03-01T13:23:34;13.90;;;8.55;;
76477;SDS011;65309;49.790;18.972;2023-03-01T13:28:42;8.88;;;5.25;;
76477;SDS011;65309;49.790;18.972;2023-03-01T13:33:49;10.45;;;6.57;;
76477;SDS011;65309;49.790;18.972;2023-03-01T13:38:54;20.13;;;9.70;;
76477;SDS011;65309;49.790;18.972;2023-03-01T13:44:02;10.90;;;7.75;;
76477;SDS011;65309;49.790;18.972;2023-03-01T13:49:16;17.98;;;9.30;;
76477;SDS011;65309;49.790;18.972;2023-03-01T13:54:22;8.52;;;4.50;;
76477;SDS011;65309;49.790;18.972;2023-03-01T13:59:31;8.52;;;5.45;;
76477;SDS011;65309;49.790;18.972;2023-03-01T14:04:33;19.42;;;7.10;;
76477;SDS011;65309;49.790;18.972;2023-03-01T14:09:39;7.38;;;4.85;;
76477;SDS011;65309;49.790;18.972;2023-03-01T14:14:46;10.18;;;6.53;;
76477;SDS011;65309;49.790;18.972;2023-03-01T14:19:54;6.85;;;4.38;;
76477;SDS011;65309;49.790;18.972;2023-03-01T14:24:59;11.52;;;6.55;;
76477;SDS011;65309;49.790;18.972;2023-03-01T14:30:09;9.70;;;6.07;;
76477;SDS011;65309;49.790;18.972;2023-03-01T14:35:19;14.38;;;7.93;;
76477;SDS011;65309;49.790;18.972;2023-03-01T14:40:23;7.10;;;4.70;;
76477;SDS011;65309;49.790;18.972;2023-03-01T14:45:29;10.25;;;5.40;;
76477;SDS011;65309;49.790;18.972;2023-03-01T14:50:32;12.10;;;7.43;;
76477;SDS011;65309;49.790;18.972;2023-03-01T14:55:36;10.23;;;5.57;;
76477;SDS011;65309;49.790;18.972;2023-03-01T15:00:46;7.20;;;4.32;;
76477;SDS011;65309;49.790;18.972;2023-03-01T15:05:50;6.80;;;3.63;;
76477;SDS011;65309;49.790;18.972;2023-03-01T15:10:58;6.38;;;3.13;;
76477;SDS011;65309;49.790;18.972;2023-03-01T15:16:04;10.32;;;3.65;;
76477;SDS011;65309;49.790;18.972;2023-03-01T15:21:09;12.90;;;6.75;;
76477;SDS011;65309;49.790;18.972;2023-03-01T15:26:22;11.25;;;6.97;;
76477;SDS011;65309;49.790;18.972;2023-03-01T15:31:27;7.32;;;4.95;;
76477;SDS011;65309;49.790;18.972;2023-03-01T15:36:33;7.43;;;5.18;;
76477;SDS011;65309;49.790;18.972;2023-03-01T15:41:46;12.70;;;6.20;;
76477;SDS011;65309;49.790;18.972;2023-03-01T15:46:51;19.35;;;7.95;;
76477;SDS011;65309;49.790;18.972;2023-03-01T15:51:53;7.75;;;3.97;;
76477;SDS011;65309;49.790;18.972;2023-03-01T15:56:56;18.27;;;8.70;;
76477;SDS011;65309;49.790;18.972;2023-03-01T16:02:00;15.48;;;7.38;;
76477;SDS011;65309;49.790;18.972;2023-03-01T16:07:02;15.52;;;7.95;;
76477;SDS011;65309;49.790;18.972;2023-03-01T16:12:05;14.15;;;7.53;;
76477;SDS011;65309;49.790;18.972;2023-03-01T16:17:09;13.27;;;6.75;;
76477;SDS011;65309;49.790;18.972;2023-03-01T16:22:11;19.45;;;7.53;;
76477;SDS011;65309;49.790;18.972;2023-03-01T16:27:14;18.38;;;8.15;;
76477;SDS011;65309;49.790;18.972;2023-03-01T16:32:18;14.23;;;7.38;;
76477;SDS011;65309;49.790;18.972;2023-03-01T16:37:20;17.60;;;8.68;;
76477;SDS011;65309;49.790;18.972;2023-03-01T16:42:23;19.27;;;8.93;;
76477;SDS011;65309;49.790;18.972;2023-03-01T16:47:26;14.93;;;8.00;;
76477;SDS011;65309;49.790;18.972;2023-03-01T16:52:29;13.38;;;7.60;;
76477;SDS011;65309;49.790;18.972;2023-03-01T16:57:31;14.52;;;6.20;;
76477;SDS011;65309;49.790;18.972;2023-03-01T17:02:36;18.52;;;7.15;;
76477;SDS011;65309;49.790;18.972;2023-03-01T17:07:39;13.00;;;7.20;;
76477;SDS011;65309;49.790;18.972;2023-03-01T17:12:41;13.63;;;7.22;;
76477;SDS011;65309;49.790;18.972;2023-03-01T17:17:45;13.35;;;5.05;;
76477;SDS011;65309;49.790;18.972;2023-03-01T17:22:52;11.18;;;4.55;;
76477;SDS011;65309;49.790;18.972;2023-03-01T17:27:54;8.93;;;5.80;;
76477;SDS011;65309;49.790;18.972;2023-03-01T17:32:57;12.07;;;6.22;;
76477;SDS011;65309;49.790;18.972;2023-03-01T17:37:59;7.05;;;5.05;;
76477;SDS011;65309;49.790;18.972;2023-03-01T17:43:01;9.73;;;6.07;;
76477;SDS011;65309;49.790;18.972;2023-03-01T17:48:06;10.18;;;5.93;;
76477;SDS011;65309;49.790;18.972;2023-03-01T17:53:08;6.32;;;4.47;;
76477;SDS011;65309;49.790;18.972;2023-03-01T17:58:11;11.30;;;5.30;;
76477;SDS011;65309;49.790;18.972;2023-03-01T18:03:16;13.23;;;6.60;;
76477;SDS011;65309;49.790;18.972;2023-03-01T18:08:18;16.08;;;7.10;;
76477;SDS011;65309;49.790;18.972;2023-03-01T18:13:20;16.83;;;8.48;;
76477;SDS011;65309;49.790;18.972;2023-03-01T18:18:24;10.40;;;5.80;;
76477;SDS011;65309;49.790;18.972;2023-03-01T18:23:26;14.30;;;7.30;;
76477;SDS011;65309;49.790;18.972;2023-03-01T18:28:29;11.50;;;5.53;;
76477;SDS011;65309;49.790;18.972;2023-03-01T18:33:34;12.98;;;6.78;;
76477;SDS011;65309;49.790;18.972;2023-03-01T18:38:36;8.23;;;4.55;;
76477;SDS011;65309;49.790;18.972;2023-03-01T18:43:38;10.82;;;5.57;;
76477;SDS011;65309;49.790;18.972;2023-03-01T18:48:42;9.95;;;5.28;;
76477;SDS011;65309;49.790;18.972;2023-03-01T18:53:45;12.32;;;6.07;;
76477;SDS011;65309;49.790;18.972;2023-03-01T18:58:47;13.75;;;5.57;;
76477;SDS011;65309;49.790;18.972;2023-03-01T19:03:51;10.60;;;6.97;;
76477;SDS011;65309;49.790;18.972;2023-03-01T19:08:53;8.90;;;5.35;;
76477;SDS011;65309;49.790;18.972;2023-03-01T19:13:55;13.38;;;7.00;;
76477;SDS011;65309;49.790;18.972;2023-03-01T19:19:00;9.35;;;6.35;;
76477;SDS011;65309;49.790;18.972;2023-03-01T19:24:04;12.25;;;6.07;;
76477;SDS011;65309;49.790;18.972;2023-03-01T19:29:06;5.88;;;4.53;;
76477;SDS011;65309;49.790;18.972;2023-03-01T19:34:10;10.13;;;7.22;;
76477;SDS011;65309;49.790;18.972;2023-03-01T19:39:13;9.70;;;5.55;;
76477;SDS011;65309;49.790;18.972;2023-03-01T19:44:15;16.55;;;8.30;;
76477;SDS011;65309;49.790;18.972;2023-03-01T19:49:19;21.08;;;9.02;;
76477;SDS011;65309;49.790;18.972;2023-03-01T19:54:21;10.75;;;5.80;;
76477;SDS011;65309;49.790;18.972;2023-03-01T19:59:23;10.93;;;5.30;;
76477;SDS011;65309;49.790;18.972;2023-03-01T20:04:27;7.88;;;3.63;;
76477;SDS011;65309;49.790;18.972;2023-03-01T20:09:29;8.02;;;4.68;;
76477;SDS011;65309;49.790;18.972;2023-03-01T20:14:31;8.02;;;4.63;;
76477;SDS011;65309;49.790;18.972;2023-03-01T20:19:35;6.15;;;3.50;;
76477;SDS011;65309;49.790;18.972;2023-03-01T20:24:37;8.93;;;4.80;;
76477;SDS011;65309;49.790;18.972;2023-03-01T20:29:39;7.10;;;3.88;;
76477;SDS011;65309;49.790;18.972;2023-03-01T20:34:42;6.88;;;4.55;;
76477;SDS011;65309;49.790;18.972;2023-03-01T20:39:44;10.57;;;6.68;;
76477;SDS011;65309;49.790;18.972;2023-03-01T20:44:46;10.23;;;4.68;;
76477;SDS011;65309;49.790;18.972;2023-03-01T20:49:50;8.25;;;4.60;;
76477;SDS011;65309;49.790;18.972;2023-03-01T20:54:52;9.63;;;5.15;;
76477;SDS011;65309;49.790;18.972;2023-03-01T20:59:54;7.45;;;4.35;;
76477;SDS011;65309;49.790;18.972;2023-03-01T21:04:58;9.23;;;4.15;;
76477;SDS011;65309;49.790;18.972;2023-03-01T21:10:00;6.07;;;3.22;;
76477;SDS011;65309;49.790;18.972;2023-03-01T21:15:02;6.72;;;4.65;;
76477;SDS011;65309;49.790;18.972;2023-03-01T21:20:07;9.48;;;5.18;;
76477;SDS011;65309;49.790;18.972;2023-03-01T21:25:10;5.57;;;3.92;;
76477;SDS011;65309;49.790;18.972;2023-03-01T21:30:13;7.55;;;4.25;;
76477;SDS011;65309;49.790;18.972;2023-03-01T21:35:16;5.25;;;3.08;;
76477;SDS011;65309;49.790;18.972;2023-03-01T21:40:19;4.78;;;3.33;;
76477;SDS011;65309;49.790;18.972;2023-03-01T21:45:20;6.45;;;3.85;;
76477;SDS011;65309;49.790;18.972;2023-03-01T21:50:24;9.38;;;5.60;;
76477;SDS011;65309;49.790;18.972;2023-03-01T21:55:26;3.70;;;3.28;;
76477;SDS011;65309;49.790;18.972;2023-03-01T22:00:28;7.45;;;4.47;;
76477;SDS011;65309;49.790;18.972;2023-03-01T22:05:31;5.97;;;5.10;;
76477;SDS011;65309;49.790;18.972;2023-03-01T22:10:37;9.38;;;4.03;;
76477;SDS011;65309;49.790;18.972;2023-03-01T22:15:43;3.97;;;3.15;;
76477;SDS011;65309;49.790;18.972;2023-03-01T22:20:46;7.95;;;3.92;;
76477;SDS011;65309;49.790;18.972;2023-03-01T22:25:48;5.60;;;3.90;;
76477;SDS011;65309;49.790;18.972;2023-03-01T22:30:50;5.78;;;3.45;;
76477;SDS011;65309;49.790;18.972;2023-03-01T22:35:54;3.05;;;2.78;;
76477;SDS011;65309;49.790;18.972;2023-03-01T22:40:57;5.63;;;2.92;;
76477;SDS011;65309;49.790;18.972;2023-03-01T22:46:07;6.75;;;3.72;;
76477;SDS011;65309;49.790;18.972;2023-03-01T22:51:14;18.55;;;7.47;;
76477;SDS011;65309;49.790;18.972;2023-03-01T22:56:18;16.65;;;6.07;;
76477;SDS011;65309;49.790;18.972;2023-03-01T23:01:22;11.77;;;7.53;;
76477;SDS011;65309;49.790;18.972;2023-03-01T23:06:27;8.18;;;4.22;;
76477;SDS011;65309;49.790;18.972;2023-03-01T23:11:31;8.00;;;4.90;;
76477;SDS011;65309;49.790;18.972;2023-03-01T23:16:33;7.32;;;4.22;;
76477;SDS011;65309;49.790;18.972;2023-03-01T23:21:37;19.00;;;6.93;;
76477;SDS011;65309;49.790;18.972;2023-03-01T23:26:44;10.32;;;6.00;;
76477;SDS011;65309;49.790;18.972;2023-03-01T23:31:51;7.88;;;5.28;;
76477;SDS011;65309;49.790;18.972;2023-03-01T23:36:57;7.30;;;4.97;;
76477;SDS011;65309;49.790;18.972;2023-03-01T23:41:59;11.13;;;3.78;;
76477;SDS011;65309;49.790;18.972;2023-03-01T23:47:01;7.53;;;4.32;;
76477;SDS011;65309;49.790;18.972;2023-03-01T23:52:05;7.15;;;4.40;;
76477;SDS011;65309;49.790;18.972;2023-03-01T23:57:07;6.15;;;4.57;;
